sensor_id;sensor_type;location;lat;lon;timestamp;pressure;altitude;pressure_sealevel;temperature;humidity
14383;BME280;7275;50.328;8.720;2023-07-02T00:00:04;98922.47;;;23.00;50.65
14383;BME280;7275;50.328;8.720;2023-07-02T00:02:33;98924.16;;;23.01;50.42
14383;BME280;7275;50.328;8.720;2023-07-02T00:05:00;98915.38;;;22.99;50.37
14383;BME280;7275;50.328;8.720;2023-07-02T00:07:28;98921.78;;;22.98;50.56
14383;BME280;7275;50.328;8.720;2023-07-02T00:09:56;98921.91;;;22.97;50.55
14383;BME280;7275;50.328;8.720;2023-07-02T00:12:25;98921.38;;;22.93;50.56
14383;BME280;7275;50.328;8.720;2023-07-02T00:14:52;98917.53;;;22.96;50.65
14383;BME280;7275;50.328;8.720;2023-07-02T00:17:20;98908.06;;;22.92;50.55
14383;BME280;7275;50.328;8.720;2023-07-02T00:19:49;98912.44;;;22.93;50.40
14383;BME280;7275;50.328;8.720;2023-07-02T00:22:18;98916.84;;;22.94;50.44
14383;BME280;7275;50.328;8.720;2023-07-02T00:24:46;98910.59;;;22.93;50.66
14383;BME280;7275;50.328;8.720;2023-07-02T00:27:13;98907.91;;;22.93;50.60
14383;BME280;7275;50.328;8.720;2023-07-02T00:29:42;98916.84;;;22.94;50.22
14383;BME280;7275;50.328;8.720;2023-07-02T00:32:10;98907.38;;;22.90;50.38
14383;BME280;7275;50.328;8.720;2023-07-02T00:34:38;98924.09;;;22.93;50.18
14383;BME280;7275;50.328;8.720;2023-07-02T00:37:05;98924.59;;;22.97;50.45
14383;BME280;7275;50.328;8.720;2023-07-02T00:39:33;98922.78;;;22.97;50.72
14383;BME280;7275;50.328;8.720;2023-07-02T00:42:01;98923.63;;;22.98;50.56
14383;BME280;7275;50.328;8.720;2023-07-02T00:44:30;98943.19;;;23.00;50.52
14383;BME280;7275;50.328;8.720;2023-07-02T00:46:59;98938.78;;;22.99;50.23
14383;BME280;7275;50.328;8.720;2023-07-02T00:49:27;98931.25;;;23.02;50.24
14383;BME280;7275;50.328;8.720;2023-07-02T00:51:55;98932.25;;;23.01;50.44
14383;BME280;7275;50.328;8.720;2023-07-02T00:54:23;98935.63;;;23.03;50.04
14383;BME280;7275;50.328;8.720;2023-07-02T00:56:50;98931.94;;;23.04;50.09
14383;BME280;7275;50.328;8.720;2023-07-02T00:59:18;98935.09;;;23.00;50.52
14383;BME280;7275;50.328;8.720;2023-07-02T01:01:45;98935.41;;;22.97;50.34
14383;BME280;7275;50.328;8.720;2023-07-02T01:04:18;98933.03;;;22.94;50.25
14383;BME280;7275;50.328;8.720;2023-07-02T01:06:46;98939.84;;;22.88;49.99
14383;BME280;7275;50.328;8.720;2023-07-02T01:09:14;98937.66;;;22.84;50.39
14383;BME280;7275;50.328;8.720;2023-07-02T01:11:43;98937.78;;;22.82;49.86
14383;BME280;7275;50.328;8.720;2023-07-02T01:14:14;98943.31;;;22.81;50.18
14383;BME280;7275;50.328;8.720;2023-07-02T01:16:43;98939.09;;;22.78;50.14
14383;BME280;7275;50.328;8.720;2023-07-02T01:19:13;98935.69;;;22.76;50.15
14383;BME280;7275;50.328;8.720;2023-07-02T01:21:46;98938.72;;;22.73;49.79
14383;BME280;7275;50.328;8.720;2023-07-02T01:24:15;98938.16;;;22.70;49.68
14383;BME280;7275;50.328;8.720;2023-07-02T01:26:43;98945.69;;;22.66;49.88
14383;BME280;7275;50.328;8.720;2023-07-02T01:29:15;98942.31;;;22.64;49.75
14383;BME280;7275;50.328;8.720;2023-07-02T01:31:44;98956.22;;;22.60;49.83
14383;BME280;7275;50.328;8.720;2023-07-02T01:34:12;98961.03;;;22.56;50.00
14383;BME280;7275;50.328;8.720;2023-07-02T01:36:40;98961.19;;;22.55;49.67
14383;BME280;7275;50.328;8.720;2023-07-02T01:39:09;98961.66;;;22.50;49.56
14383;BME280;7275;50.328;8.720;2023-07-02T01:41:41;98949.59;;;22.45;49.73
14383;BME280;7275;50.328;8.720;2023-07-02T01:44:09;98959.31;;;22.38;49.94
14383;BME280;7275;50.328;8.720;2023-07-02T01:46:37;98959.59;;;22.35;50.00
14383;BME280;7275;50.328;8.720;2023-07-02T01:49:05;98948.97;;;22.33;50.21
14383;BME280;7275;50.328;8.720;2023-07-02T01:51:32;98950.44;;;22.27;50.44
14383;BME280;7275;50.328;8.720;2023-07-02T01:54:00;98962.88;;;22.28;50.57
14383;BME280;7275;50.328;8.720;2023-07-02T01:56:29;98959.50;;;22.26;50.22
14383;BME280;7275;50.328;8.720;2023-07-02T01:58:56;98955.66;;;22.29;50.36
14383;BME280;7275;50.328;8.720;2023-07-02T02:01:24;98957.22;;;22.32;50.03
14383;BME280;7275;50.328;8.720;2023-07-02T02:03:52;98958.19;;;22.31;50.13
14383;BME280;7275;50.328;8.720;2023-07-02T02:06:19;98967.28;;;22.30;50.13
14383;BME280;7275;50.328;8.720;2023-07-02T02:08:47;98965.28;;;22.32;50.30
14383;BME280;7275;50.328;8.720;2023-07-02T02:11:14;98964.28;;;22.33;50.36
14383;BME280;7275;50.328;8.720;2023-07-02T02:13:43;98964.16;;;22.34;50.17
14383;BME280;7275;50.328;8.720;2023-07-02T02:16:11;98972.06;;;22.36;50.20
14383;BME280;7275;50.328;8.720;2023-07-02T02:18:39;98964.97;;;22.35;50.39
14383;BME280;7275;50.328;8.720;2023-07-02T02:21:07;98965.13;;;22.33;50.37
14383;BME280;7275;50.328;8.720;2023-07-02T02:23:34;98973.38;;;22.32;50.38
14383;BME280;7275;50.328;8.720;2023-07-02T02:26:02;98972.66;;;22.30;50.19
14383;BME280;7275;50.328;8.720;2023-07-02T02:28:30;98985.28;;;22.29;50.47
14383;BME280;7275;50.328;8.720;2023-07-02T02:30:59;98994.06;;;22.31;50.28
14383;BME280;7275;50.328;8.720;2023-07-02T02:33:26;98993.94;;;22.23;50.25
14383;BME280;7275;50.328;8.720;2023-07-02T02:35:54;98994.38;;;22.18;50.25
14383;BME280;7275;50.328;8.720;2023-07-02T02:38:22;98993.84;;;22.15;50.24
14383;BME280;7275;50.328;8.720;2023-07-02T02:40:49;98988.03;;;22.10;50.06
14383;BME280;7275;50.328;8.720;2023-07-02T02:43:17;98986.78;;;22.04;50.17
14383;BME280;7275;50.328;8.720;2023-07-02T02:45:44;98989.75;;;22.01;50.29
14383;BME280;7275;50.328;8.720;2023-07-02T02:48:13;98990.91;;;21.99;50.24
14383;BME280;7275;50.328;8.720;2023-07-02T02:50:41;98996.28;;;21.99;50.35
14383;BME280;7275;50.328;8.720;2023-07-02T02:53:10;98995.88;;;21.94;50.38
14383;BME280;7275;50.328;8.720;2023-07-02T02:55:37;98998.84;;;21.91;49.92
14383;BME280;7275;50.328;8.720;2023-07-02T02:58:05;98997.59;;;21.85;50.04
14383;BME280;7275;50.328;8.720;2023-07-02T03:00:33;98997.16;;;21.80;49.95
14383;BME280;7275;50.328;8.720;2023-07-02T03:03:00;98996.88;;;21.74;50.18
14383;BME280;7275;50.328;8.720;2023-07-02T03:05:30;98995.94;;;21.65;50.22
14383;BME280;7275;50.328;8.720;2023-07-02T03:07:58;98998.34;;;21.59;50.69
14383;BME280;7275;50.328;8.720;2023-07-02T03:10:26;99000.16;;;21.58;50.50
14383;BME280;7275;50.328;8.720;2023-07-02T03:12:54;99001.84;;;21.59;50.62
14383;BME280;7275;50.328;8.720;2023-07-02T03:15:22;99010.78;;;21.60;50.92
14383;BME280;7275;50.328;8.720;2023-07-02T03:17:49;99013.31;;;21.61;50.76
14383;BME280;7275;50.328;8.720;2023-07-02T03:20:17;99000.88;;;21.60;50.70
14383;BME280;7275;50.328;8.720;2023-07-02T03:22:46;99008.25;;;21.58;50.99
14383;BME280;7275;50.328;8.720;2023-07-02T03:25:14;99005.81;;;21.55;50.94
14383;BME280;7275;50.328;8.720;2023-07-02T03:27:42;98998.06;;;21.52;51.31
14383;BME280;7275;50.328;8.720;2023-07-02T03:30:10;99005.13;;;21.43;51.62
14383;BME280;7275;50.328;8.720;2023-07-02T03:32:37;99005.28;;;21.42;51.52
14383;BME280;7275;50.328;8.720;2023-07-02T03:35:05;98996.38;;;21.41;51.18
14383;BME280;7275;50.328;8.720;2023-07-02T03:37:33;99000.88;;;21.41;50.96
14383;BME280;7275;50.328;8.720;2023-07-02T03:40:02;99002.72;;;21.40;51.32
14383;BME280;7275;50.328;8.720;2023-07-02T03:42:32;99015.03;;;21.43;51.07
14383;BME280;7275;50.328;8.720;2023-07-02T03:45:00;99006.53;;;21.47;51.07
14383;BME280;7275;50.328;8.720;2023-07-02T03:47:27;99008.97;;;21.51;50.72
14383;BME280;7275;50.328;8.720;2023-07-02T03:49:55;99013.63;;;21.58;50.83
14383;BME280;7275;50.328;8.720;2023-07-02T03:52:22;99022.25;;;21.62;50.83
14383;BME280;7275;50.328;8.720;2023-07-02T03:54:50;99018.41;;;21.64;50.61
14383;BME280;7275;50.328;8.720;2023-07-02T03:57:19;99032.44;;;21.68;50.51
14383;BME280;7275;50.328;8.720;2023-07-02T03:59:46;99020.84;;;21.67;50.32
14383;BME280;7275;50.328;8.720;2023-07-02T04:02:14;99021.81;;;21.66;50.24
14383;BME280;7275;50.328;8.720;2023-07-02T04:04:42;99030.75;;;21.67;49.77
14383;BME280;7275;50.328;8.720;2023-07-02T04:07:09;99035.81;;;21.70;49.98
14383;BME280;7275;50.328;8.720;2023-07-02T04:09:37;99037.53;;;21.71;49.30
14383;BME280;7275;50.328;8.720;2023-07-02T04:12:05;99035.72;;;21.71;48.77
14383;BME280;7275;50.328;8.720;2023-07-02T04:14:34;99035.13;;;21.68;48.61
14383;BME280;7275;50.328;8.720;2023-07-02T04:17:02;99040.09;;;21.63;48.49
14383;BME280;7275;50.328;8.720;2023-07-02T04:19:31;99046.63;;;21.51;48.46
14383;BME280;7275;50.328;8.720;2023-07-02T04:21:58;99052.81;;;21.51;48.55
14383;BME280;7275;50.328;8.720;2023-07-02T04:24:26;99054.81;;;21.49;48.22
14383;BME280;7275;50.328;8.720;2023-07-02T04:26:54;99059.91;;;21.42;48.50
14383;BME280;7275;50.328;8.720;2023-07-02T04:29:43;99057.09;;;21.44;48.58
14383;BME280;7275;50.328;8.720;2023-07-02T04:32:11;99062.47;;;21.44;48.56
14383;BME280;7275;50.328;8.720;2023-07-02T04:34:38;99074.06;;;21.44;48.40
14383;BME280;7275;50.328;8.720;2023-07-02T04:37:06;99071.25;;;21.46;48.51
14383;BME280;7275;50.328;8.720;2023-07-02T04:39:34;99074.50;;;21.49;48.08
14383;BME280;7275;50.328;8.720;2023-07-02T04:42:01;99079.47;;;21.54;48.08
14383;BME280;7275;50.328;8.720;2023-07-02T04:44:29;99085.53;;;21.56;48.11
14383;BME280;7275;50.328;8.720;2023-07-02T04:47:00;99074.38;;;21.61;48.19
14383;BME280;7275;50.328;8.720;2023-07-02T04:49:28;99082.84;;;21.66;48.65
14383;BME280;7275;50.328;8.720;2023-07-02T04:51:56;99084.69;;;21.75;48.60
14383;BME280;7275;50.328;8.720;2023-07-02T04:54:23;99086.69;;;21.82;48.82
14383;BME280;7275;50.328;8.720;2023-07-02T04:56:51;99089.53;;;21.90;48.95
14383;BME280;7275;50.328;8.720;2023-07-02T04:59:20;99080.31;;;21.93;49.05
14383;BME280;7275;50.328;8.720;2023-07-02T05:01:48;99072.81;;;21.96;49.32
14383;BME280;7275;50.328;8.720;2023-07-02T05:04:17;99078.06;;;21.98;49.25
14383;BME280;7275;50.328;8.720;2023-07-02T05:06:44;99074.66;;;21.96;49.62
14383;BME280;7275;50.328;8.720;2023-07-02T05:09:12;99079.34;;;21.94;49.38
14383;BME280;7275;50.328;8.720;2023-07-02T05:11:39;99080.31;;;21.93;48.85
14383;BME280;7275;50.328;8.720;2023-07-02T05:14:07;99081.75;;;21.87;49.32
14383;BME280;7275;50.328;8.720;2023-07-02T05:16:35;99083.88;;;21.84;49.78
14383;BME280;7275;50.328;8.720;2023-07-02T05:19:02;99082.88;;;21.85;49.70
14383;BME280;7275;50.328;8.720;2023-07-02T05:21:31;99096.47;;;21.83;49.84
14383;BME280;7275;50.328;8.720;2023-07-02T05:23:59;99093.19;;;21.80;49.57
14383;BME280;7275;50.328;8.720;2023-07-02T05:26:26;99099.31;;;21.82;49.52
14383;BME280;7275;50.328;8.720;2023-07-02T05:28:54;99097.34;;;21.84;49.60
14383;BME280;7275;50.328;8.720;2023-07-02T05:31:21;99095.91;;;21.89;49.47
14383;BME280;7275;50.328;8.720;2023-07-02T05:33:49;99096.88;;;21.88;49.04
14383;BME280;7275;50.328;8.720;2023-07-02T05:36:16;99096.75;;;21.90;49.18
14383;BME280;7275;50.328;8.720;2023-07-02T05:38:45;99086.69;;;21.92;49.28
14383;BME280;7275;50.328;8.720;2023-07-02T05:41:18;99093.19;;;21.99;49.01
14383;BME280;7275;50.328;8.720;2023-07-02T05:43:45;99107.78;;;22.06;49.08
14383;BME280;7275;50.328;8.720;2023-07-02T05:46:14;99100.25;;;22.09;49.14
14383;BME280;7275;50.328;8.720;2023-07-02T05:48:42;99095.84;;;22.18;48.90
14383;BME280;7275;50.328;8.720;2023-07-02T05:51:09;99098.81;;;22.24;49.03
14383;BME280;7275;50.328;8.720;2023-07-02T05:53:37;99099.06;;;22.41;48.64
14383;BME280;7275;50.328;8.720;2023-07-02T05:56:06;99099.47;;;22.46;48.04
14383;BME280;7275;50.328;8.720;2023-07-02T05:58:33;99104.56;;;22.58;48.29
14383;BME280;7275;50.328;8.720;2023-07-02T06:01:13;99110.19;;;22.74;48.18
14383;BME280;7275;50.328;8.720;2023-07-02T06:03:41;99117.94;;;22.87;47.89
14383;BME280;7275;50.328;8.720;2023-07-02T06:06:11;99120.00;;;23.02;47.59
14383;BME280;7275;50.328;8.720;2023-07-02T06:08:38;99117.47;;;23.19;47.32
14383;BME280;7275;50.328;8.720;2023-07-02T06:11:09;99124.00;;;23.26;46.77
14383;BME280;7275;50.328;8.720;2023-07-02T06:13:36;99125.09;;;23.33;46.67
14383;BME280;7275;50.328;8.720;2023-07-02T06:16:04;99135.69;;;23.44;46.57
14383;BME280;7275;50.328;8.720;2023-07-02T06:18:32;99131.22;;;23.52;46.32
14383;BME280;7275;50.328;8.720;2023-07-02T06:20:59;99136.53;;;23.62;46.57
14383;BME280;7275;50.328;8.720;2023-07-02T06:23:27;99136.25;;;23.65;45.65
14383;BME280;7275;50.328;8.720;2023-07-02T06:25:55;99132.41;;;23.67;45.95
14383;BME280;7275;50.328;8.720;2023-07-02T06:28:27;99138.63;;;23.86;45.96
14383;BME280;7275;50.328;8.720;2023-07-02T06:30:54;99142.25;;;23.94;45.91
14383;BME280;7275;50.328;8.720;2023-07-02T06:33:22;99138.50;;;24.05;45.79
14383;BME280;7275;50.328;8.720;2023-07-02T06:35:49;99142.38;;;24.20;45.55
14383;BME280;7275;50.328;8.720;2023-07-02T06:38:17;99136.00;;;24.29;45.62
14383;BME280;7275;50.328;8.720;2023-07-02T06:40:45;99138.63;;;24.38;45.38
14383;BME280;7275;50.328;8.720;2023-07-02T06:43:13;99134.94;;;24.47;45.69
14383;BME280;7275;50.328;8.720;2023-07-02T06:45:42;99138.94;;;24.61;45.79
14383;BME280;7275;50.328;8.720;2023-07-02T06:48:09;99144.28;;;24.79;45.57
14383;BME280;7275;50.328;8.720;2023-07-02T06:50:37;99141.16;;;24.91;44.92
14383;BME280;7275;50.328;8.720;2023-07-02T06:53:04;99143.91;;;24.99;44.44
14383;BME280;7275;50.328;8.720;2023-07-02T06:55:32;99151.88;;;25.01;44.00
14383;BME280;7275;50.328;8.720;2023-07-02T06:57:59;99151.91;;;25.09;43.78
14383;BME280;7275;50.328;8.720;2023-07-02T07:00:27;99155.97;;;25.13;42.95
14383;BME280;7275;50.328;8.720;2023-07-02T07:02:56;99159.75;;;25.20;43.13
14383;BME280;7275;50.328;8.720;2023-07-02T07:05:24;99165.31;;;25.26;43.07
14383;BME280;7275;50.328;8.720;2023-07-02T07:07:51;99158.56;;;25.30;42.45
14383;BME280;7275;50.328;8.720;2023-07-02T07:10:19;99164.19;;;25.37;42.53
14383;BME280;7275;50.328;8.720;2023-07-02T07:12:47;99169.50;;;25.47;42.47
14383;BME280;7275;50.328;8.720;2023-07-02T07:15:14;99163.63;;;25.51;41.86
14383;BME280;7275;50.328;8.720;2023-07-02T07:17:42;99171.06;;;25.49;41.26
14383;BME280;7275;50.328;8.720;2023-07-02T07:20:11;99163.94;;;25.48;41.01
14383;BME280;7275;50.328;8.720;2023-07-02T07:22:40;99163.75;;;25.50;41.33
14383;BME280;7275;50.328;8.720;2023-07-02T07:25:08;99162.94;;;25.57;41.36
14383;BME280;7275;50.328;8.720;2023-07-02T07:27:36;99172.44;;;25.61;40.37
14383;BME280;7275;50.328;8.720;2023-07-02T07:30:04;99161.41;;;25.55;40.71
14383;BME280;7275;50.328;8.720;2023-07-02T07:32:32;99172.25;;;25.55;40.50
14383;BME280;7275;50.328;8.720;2023-07-02T07:35:00;99175.47;;;25.58;40.36
14383;BME280;7275;50.328;8.720;2023-07-02T07:37:29;99179.34;;;25.56;40.45
14383;BME280;7275;50.328;8.720;2023-07-02T07:39:56;99167.69;;;25.55;40.59
14383;BME280;7275;50.328;8.720;2023-07-02T07:42:24;99174.59;;;25.58;40.50
14383;BME280;7275;50.328;8.720;2023-07-02T07:44:51;99181.56;;;25.60;40.67
14383;BME280;7275;50.328;8.720;2023-07-02T07:47:19;99174.97;;;25.71;40.63
14383;BME280;7275;50.328;8.720;2023-07-02T07:49:47;99172.66;;;25.76;40.10
14383;BME280;7275;50.328;8.720;2023-07-02T07:52:14;99170.13;;;25.82;40.29
14383;BME280;7275;50.328;8.720;2023-07-02T07:54:43;99179.78;;;25.93;39.87
14383;BME280;7275;50.328;8.720;2023-07-02T07:57:11;99190.78;;;25.91;39.48
14383;BME280;7275;50.328;8.720;2023-07-02T07:59:38;99172.84;;;25.90;39.76
14383;BME280;7275;50.328;8.720;2023-07-02T08:02:06;99184.00;;;25.95;39.77
14383;BME280;7275;50.328;8.720;2023-07-02T08:04:34;99184.84;;;25.96;39.40
14383;BME280;7275;50.328;8.720;2023-07-02T08:07:01;99180.47;;;25.95;39.32
14383;BME280;7275;50.328;8.720;2023-07-02T08:09:30;99179.94;;;25.99;39.84
14383;BME280;7275;50.328;8.720;2023-07-02T08:11:59;99181.31;;;26.03;39.71
14383;BME280;7275;50.328;8.720;2023-07-02T08:14:27;99191.31;;;26.03;38.57
14383;BME280;7275;50.328;8.720;2023-07-02T08:16:54;99180.31;;;26.04;38.88
14383;BME280;7275;50.328;8.720;2023-07-02T08:19:22;99183.41;;;26.09;39.12
14383;BME280;7275;50.328;8.720;2023-07-02T08:21:53;99194.06;;;26.11;38.59
14383;BME280;7275;50.328;8.720;2023-07-02T08:24:21;99188.25;;;26.06;38.02
14383;BME280;7275;50.328;8.720;2023-07-02T08:26:49;99194.38;;;26.08;38.50
14383;BME280;7275;50.328;8.720;2023-07-02T08:29:18;99197.22;;;26.06;38.69
14383;BME280;7275;50.328;8.720;2023-07-02T08:31:46;99196.09;;;26.09;38.26
14383;BME280;7275;50.328;8.720;2023-07-02T08:34:13;99191.13;;;26.04;38.08
14383;BME280;7275;50.328;8.720;2023-07-02T08:36:41;99189.94;;;25.99;38.04
14383;BME280;7275;50.328;8.720;2023-07-02T08:39:09;99195.69;;;26.04;38.33
14383;BME280;7275;50.328;8.720;2023-07-02T08:41:42;99186.91;;;26.02;38.10
14383;BME280;7275;50.328;8.720;2023-07-02T08:44:11;99202.28;;;26.01;37.89
14383;BME280;7275;50.328;8.720;2023-07-02T08:46:41;99198.28;;;26.05;37.97
14383;BME280;7275;50.328;8.720;2023-07-02T08:49:09;99198.44;;;26.12;38.08
14383;BME280;7275;50.328;8.720;2023-07-02T08:51:37;99200.34;;;26.20;37.93
14383;BME280;7275;50.328;8.720;2023-07-02T08:54:04;99195.78;;;26.28;37.15
14383;BME280;7275;50.328;8.720;2023-07-02T08:56:32;99206.44;;;26.30;36.09
14383;BME280;7275;50.328;8.720;2023-07-02T08:58:59;99202.38;;;26.34;36.49
14383;BME280;7275;50.328;8.720;2023-07-02T09:01:27;99208.47;;;26.36;36.35
14383;BME280;7275;50.328;8.720;2023-07-02T09:03:59;99202.03;;;26.45;36.18
14383;BME280;7275;50.328;8.720;2023-07-02T09:06:27;99205.91;;;26.66;36.60
14383;BME280;7275;50.328;8.720;2023-07-02T09:09:03;99199.66;;;26.90;36.95
14383;BME280;7275;50.328;8.720;2023-07-02T09:11:31;99208.25;;;27.10;35.31
14383;BME280;7275;50.328;8.720;2023-07-02T09:13:58;99220.63;;;27.20;35.06
14383;BME280;7275;50.328;8.720;2023-07-02T09:16:28;99216.00;;;27.21;35.29
14383;BME280;7275;50.328;8.720;2023-07-02T09:19:02;99214.50;;;27.26;35.53
14383;BME280;7275;50.328;8.720;2023-07-02T09:21:43;99208.16;;;27.34;34.69
14383;BME280;7275;50.328;8.720;2023-07-02T09:24:12;99209.53;;;27.38;35.58
14383;BME280;7275;50.328;8.720;2023-07-02T09:26:42;99215.66;;;27.40;34.71
14383;BME280;7275;50.328;8.720;2023-07-02T09:29:11;99209.88;;;27.43;35.55
14383;BME280;7275;50.328;8.720;2023-07-02T09:31:46;99203.38;;;27.52;35.42
14383;BME280;7275;50.328;8.720;2023-07-02T09:34:35;99205.13;;;27.76;35.85
14383;BME280;7275;50.328;8.720;2023-07-02T09:37:05;99196.16;;;28.06;34.88
14383;BME280;7275;50.328;8.720;2023-07-02T09:39:33;99198.69;;;28.30;33.38
14383;BME280;7275;50.328;8.720;2023-07-02T09:42:03;99200.25;;;28.47;33.17
14383;BME280;7275;50.328;8.720;2023-07-02T09:44:33;99200.47;;;28.60;33.07
14383;BME280;7275;50.328;8.720;2023-07-02T09:47:02;99191.03;;;28.71;32.96
14383;BME280;7275;50.328;8.720;2023-07-02T09:49:32;99193.41;;;28.88;32.49
14383;BME280;7275;50.328;8.720;2023-07-02T09:52:03;99184.66;;;29.15;32.88
14383;BME280;7275;50.328;8.720;2023-07-02T09:54:31;99186.03;;;29.41;32.08
14383;BME280;7275;50.328;8.720;2023-07-02T09:56:59;99198.81;;;29.55;31.82
14383;BME280;7275;50.328;8.720;2023-07-02T09:59:27;99189.09;;;29.67;31.62
14383;BME280;7275;50.328;8.720;2023-07-02T10:01:55;99194.75;;;29.80;32.02
14383;BME280;7275;50.328;8.720;2023-07-02T10:04:24;99193.97;;;29.86;31.60
14383;BME280;7275;50.328;8.720;2023-07-02T10:06:53;99191.25;;;29.86;30.72
14383;BME280;7275;50.328;8.720;2023-07-02T10:09:34;99191.16;;;29.79;30.46
14383;BME280;7275;50.328;8.720;2023-07-02T10:12:14;99183.84;;;29.80;31.06
14383;BME280;7275;50.328;8.720;2023-07-02T10:14:43;99179.44;;;29.79;30.41
14383;BME280;7275;50.328;8.720;2023-07-02T10:17:23;99180.34;;;29.86;31.10
14383;BME280;7275;50.328;8.720;2023-07-02T10:19:51;99179.84;;;29.97;31.04
14383;BME280;7275;50.328;8.720;2023-07-02T10:22:20;99177.91;;;30.12;30.05
14383;BME280;7275;50.328;8.720;2023-07-02T10:24:53;99169.03;;;30.25;30.32
14383;BME280;7275;50.328;8.720;2023-07-02T10:27:21;99169.16;;;30.38;29.84
14383;BME280;7275;50.328;8.720;2023-07-02T10:29:59;99182.41;;;30.41;27.48
14383;BME280;7275;50.328;8.720;2023-07-02T10:32:27;99181.78;;;30.39;28.23
14383;BME280;7275;50.328;8.720;2023-07-02T10:34:55;99187.44;;;30.37;28.66
14383;BME280;7275;50.328;8.720;2023-07-02T10:37:25;99178.97;;;30.32;28.47
14383;BME280;7275;50.328;8.720;2023-07-02T10:39:54;99178.34;;;30.30;28.01
14383;BME280;7275;50.328;8.720;2023-07-02T10:42:21;99181.91;;;30.31;28.55
14383;BME280;7275;50.328;8.720;2023-07-02T10:44:51;99181.06;;;30.30;29.06
14383;BME280;7275;50.328;8.720;2023-07-02T10:47:20;99188.00;;;30.33;29.21
14383;BME280;7275;50.328;8.720;2023-07-02T10:49:47;99185.16;;;30.41;29.71
14383;BME280;7275;50.328;8.720;2023-07-02T10:52:15;99182.47;;;30.47;29.67
14383;BME280;7275;50.328;8.720;2023-07-02T10:54:45;99194.47;;;30.53;29.91
14383;BME280;7275;50.328;8.720;2023-07-02T10:57:15;99191.16;;;30.57;29.33
14383;BME280;7275;50.328;8.720;2023-07-02T10:59:46;99192.25;;;30.63;29.42
14383;BME280;7275;50.328;8.720;2023-07-02T11:02:14;99198.69;;;30.76;28.85
14383;BME280;7275;50.328;8.720;2023-07-02T11:04:42;99185.41;;;30.95;29.22
14383;BME280;7275;50.328;8.720;2023-07-02T11:07:10;99181.72;;;31.09;29.12
14383;BME280;7275;50.328;8.720;2023-07-02T11:09:38;99181.53;;;31.17;28.81
14383;BME280;7275;50.328;8.720;2023-07-02T11:12:07;99180.50;;;31.18;28.92
14383;BME280;7275;50.328;8.720;2023-07-02T11:14:36;99189.78;;;31.23;28.80
14383;BME280;7275;50.328;8.720;2023-07-02T11:17:05;99178.03;;;31.23;28.62
14383;BME280;7275;50.328;8.720;2023-07-02T11:19:33;99183.25;;;31.18;27.83
14383;BME280;7275;50.328;8.720;2023-07-02T11:22:01;99187.22;;;31.15;28.34
14383;BME280;7275;50.328;8.720;2023-07-02T11:24:31;99174.56;;;31.08;28.32
14383;BME280;7275;50.328;8.720;2023-07-02T11:27:00;99183.19;;;31.11;28.23
14383;BME280;7275;50.328;8.720;2023-07-02T11:29:29;99183.41;;;31.10;27.63
14383;BME280;7275;50.328;8.720;2023-07-02T11:32:06;99177.06;;;31.03;27.42
14383;BME280;7275;50.328;8.720;2023-07-02T11:34:33;99180.63;;;31.03;27.18
14383;BME280;7275;50.328;8.720;2023-07-02T11:37:01;99181.31;;;31.12;27.02
14383;BME280;7275;50.328;8.720;2023-07-02T11:39:29;99183.84;;;31.13;27.54
14383;BME280;7275;50.328;8.720;2023-07-02T11:41:57;99174.63;;;31.14;27.01
14383;BME280;7275;50.328;8.720;2023-07-02T11:44:25;99168.31;;;31.14;27.51
14383;BME280;7275;50.328;8.720;2023-07-02T11:46:52;99169.41;;;31.26;27.54
14383;BME280;7275;50.328;8.720;2023-07-02T11:49:24;99170.38;;;31.46;27.17
14383;BME280;7275;50.328;8.720;2023-07-02T11:51:51;99167.72;;;31.59;26.69
14383;BME280;7275;50.328;8.720;2023-07-02T11:54:19;99176.16;;;31.64;25.87
14383;BME280;7275;50.328;8.720;2023-07-02T11:56:47;99181.38;;;31.59;26.41
14383;BME280;7275;50.328;8.720;2023-07-02T11:59:15;99181.16;;;31.54;26.54
14383;BME280;7275;50.328;8.720;2023-07-02T12:01:42;99179.22;;;31.41;26.97
14383;BME280;7275;50.328;8.720;2023-07-02T12:04:10;99185.09;;;31.45;27.08
14383;BME280;7275;50.328;8.720;2023-07-02T12:06:40;99180.25;;;31.40;27.12
14383;BME280;7275;50.328;8.720;2023-07-02T12:09:08;99171.19;;;31.40;26.44
14383;BME280;7275;50.328;8.720;2023-07-02T12:11:37;99168.22;;;31.35;26.58
14383;BME280;7275;50.328;8.720;2023-07-02T12:14:05;99201.78;;;31.22;26.75
14383;BME280;7275;50.328;8.720;2023-07-02T12:16:32;99183.41;;;31.10;26.88
14383;BME280;7275;50.328;8.720;2023-07-02T12:19:00;99182.34;;;31.11;26.94
14383;BME280;7275;50.328;8.720;2023-07-02T12:21:28;99197.28;;;31.15;27.08
14383;BME280;7275;50.328;8.720;2023-07-02T12:23:57;99173.97;;;31.19;26.04
14383;BME280;7275;50.328;8.720;2023-07-02T12:26:24;99182.59;;;31.43;26.70
14383;BME280;7275;50.328;8.720;2023-07-02T12:28:52;99189.00;;;31.70;26.64
14383;BME280;7275;50.328;8.720;2023-07-02T12:31:20;99183.19;;;31.93;26.25
14383;BME280;7275;50.328;8.720;2023-07-02T12:33:47;99180.06;;;32.02;26.04
14383;BME280;7275;50.328;8.720;2023-07-02T12:36:15;99185.38;;;32.10;25.31
14383;BME280;7275;50.328;8.720;2023-07-02T12:38:42;99189.78;;;32.11;25.20
14383;BME280;7275;50.328;8.720;2023-07-02T12:41:11;99196.13;;;32.18;25.28
14383;BME280;7275;50.328;8.720;2023-07-02T12:43:39;99200.97;;;32.16;25.06
14383;BME280;7275;50.328;8.720;2023-07-02T12:46:07;99183.28;;;32.19;24.64
14383;BME280;7275;50.328;8.720;2023-07-02T12:48:34;99186.47;;;32.22;25.01
14383;BME280;7275;50.328;8.720;2023-07-02T12:51:02;99202.25;;;32.33;24.65
14383;BME280;7275;50.328;8.720;2023-07-02T12:53:29;99200.78;;;32.24;24.09
14383;BME280;7275;50.328;8.720;2023-07-02T12:55:57;99201.81;;;32.10;24.64
14383;BME280;7275;50.328;8.720;2023-07-02T12:58:26;99205.13;;;31.99;24.56
14383;BME280;7275;50.328;8.720;2023-07-02T13:00:54;99205.47;;;31.83;24.19
14383;BME280;7275;50.328;8.720;2023-07-02T13:03:22;99213.63;;;31.70;24.44
14383;BME280;7275;50.328;8.720;2023-07-02T13:05:51;99197.56;;;31.61;24.20
14383;BME280;7275;50.328;8.720;2023-07-02T13:08:19;99202.16;;;31.47;24.48
14383;BME280;7275;50.328;8.720;2023-07-02T13:10:46;99211.28;;;31.33;24.16
14383;BME280;7275;50.328;8.720;2023-07-02T13:13:14;99202.41;;;31.24;24.87
14383;BME280;7275;50.328;8.720;2023-07-02T13:15:50;99213.94;;;31.20;24.69